Terminal Aerodrome Forecast
Issued by NWS Charleston, WV

Home | Current Version | Previous Version | Text Only | Print | Product List | Glossary On
Versions: 1 2 3 4 5 6 7 8 9 10 11 12 13 14 15 16 17 18 19 20 21 22
000
FTUS41 KRLX 161444 AAC
TAFEKN
TAF AMD
KEKN 161444Z 1615/1712 01004KT 6SM -SN BKN015
      TEMPO 1615/1617 1SM -SN OVC004
     FM161700 24003KT 2SM -SN OVC008
      TEMPO 1617/1621 3/4SM -SN OVC004
     FM162300 30004KT 3SM -SN OVC010
     FM170500 30003KT P6SM BKN010
     FM170800 30003KT P6SM BKN015=

USA.gov is the U.S. government's official web portal to all federal, state and local government web resources and services.